createdAt,value
2017-11-16T00:02:10.682Z,11.63
2017-11-16T00:04:38.950Z,10.47
2017-11-16T00:07:07.243Z,11.93
2017-11-16T00:09:35.514Z,10.23
2017-11-16T00:12:03.810Z,10.70
2017-11-16T00:14:32.071Z,11.53
2017-11-16T00:17:00.363Z,10.30
2017-11-16T00:19:29.461Z,10.87
2017-11-16T00:21:58.511Z,10.93
2017-11-16T00:24:26.807Z,9.87
2017-11-16T00:26:55.094Z,11.80
2017-11-16T00:29:23.382Z,11.93
2017-11-16T00:31:51.707Z,10.30
2017-11-16T00:34:19.981Z,10.27
2017-11-16T00:36:48.298Z,9.93
2017-11-16T00:39:16.768Z,9.53
2017-11-16T00:41:45.043Z,11.83
2017-11-16T00:44:13.430Z,12.30
2017-11-16T00:46:41.806Z,11.40
2017-11-16T00:49:10.087Z,11.77
2017-11-16T00:51:38.385Z,10.90
2017-11-16T00:54:07.454Z,11.60
2017-11-16T00:56:35.758Z,11.20
2017-11-16T00:59:04.801Z,10.40
2017-11-16T01:01:33.095Z,10.20
2017-11-16T01:04:01.383Z,10.93
2017-11-16T01:06:31.182Z,9.23
2017-11-16T01:08:59.455Z,10.60
2017-11-16T01:11:27.738Z,9.63
2017-11-16T01:13:56.031Z,10.47
2017-11-16T01:16:24.307Z,12.63
2017-11-16T01:18:54.320Z,10.50
2017-11-16T01:21:22.703Z,10.53
2017-11-16T01:23:50.986Z,10.43
2017-11-16T01:26:19.248Z,10.70
2017-11-16T01:28:47.529Z,10.30
2017-11-16T01:31:15.789Z,10.37
2017-11-16T01:33:44.179Z,11.30
2017-11-16T01:36:12.437Z,11.20
2017-11-16T01:38:40.834Z,11.30
2017-11-16T01:41:09.858Z,7.37
2017-11-16T01:43:38.149Z,8.83
2017-11-16T01:46:06.401Z,9.87
2017-11-16T01:48:34.681Z,10.07
2017-11-16T01:51:02.991Z,9.90
2017-11-16T01:53:31.376Z,9.40
2017-11-16T01:55:59.639Z,9.90
2017-11-16T01:58:27.927Z,10.27
2017-11-16T02:00:56.204Z,9.90
2017-11-16T02:03:24.584Z,10.13
2017-11-16T02:05:52.875Z,9.93
2017-11-16T02:08:22.068Z,9.47
2017-11-16T02:10:50.339Z,9.07
2017-11-16T02:13:18.613Z,9.57
2017-11-16T02:15:46.864Z,9.03
2017-11-16T02:18:15.150Z,10.00
2017-11-16T02:20:43.418Z,9.00
2017-11-16T02:23:11.729Z,11.03
2017-11-16T02:25:39.993Z,11.00
2017-11-16T02:28:08.270Z,9.77
2017-11-16T02:30:36.758Z,9.93
2017-11-16T02:33:05.029Z,10.43
2017-11-16T02:35:33.316Z,9.30
2017-11-16T02:38:01.693Z,10.50
2017-11-16T02:40:29.982Z,9.37
2017-11-16T02:42:58.256Z,8.53
2017-11-16T02:45:26.627Z,12.33
2017-11-16T02:47:54.897Z,10.37
2017-11-16T02:50:23.210Z,10.20
2017-11-16T02:52:52.969Z,8.90
2017-11-16T02:55:21.252Z,10.63
2017-11-16T02:57:49.527Z,10.73
2017-11-16T03:00:17.818Z,9.73
2017-11-16T03:02:46.088Z,10.70
2017-11-16T03:05:14.361Z,9.87
2017-11-16T03:07:42.654Z,12.17
2017-11-16T03:10:11.044Z,10.30
2017-11-16T03:12:39.311Z,10.40
2017-11-16T03:15:07.593Z,9.90
2017-11-16T03:17:35.970Z,11.10
2017-11-16T03:20:04.242Z,9.17
2017-11-16T03:22:32.521Z,10.57
2017-11-16T03:25:00.805Z,10.97
2017-11-16T03:27:29.070Z,10.60
2017-11-16T03:29:57.366Z,11.00
2017-11-16T03:32:25.643Z,10.33
2017-11-16T03:34:54.006Z,11.20
2017-11-16T03:37:22.317Z,10.00
2017-11-16T03:39:51.380Z,9.47
2017-11-16T03:42:19.656Z,11.10
2017-11-16T03:44:48.030Z,11.30
2017-11-16T03:47:16.298Z,10.47
2017-11-16T03:49:44.577Z,10.53
2017-11-16T03:52:12.841Z,10.80
2017-11-16T03:54:41.143Z,10.57
2017-11-16T03:57:09.422Z,11.53
2017-11-16T03:59:37.802Z,10.60
2017-11-16T04:02:06.057Z,9.43
2017-11-16T04:04:34.341Z,9.37
2017-11-16T04:07:02.600Z,11.00
2017-11-16T04:09:30.893Z,11.77
2017-11-16T04:11:59.181Z,10.70
2017-11-16T04:14:27.450Z,10.47
2017-11-16T04:16:55.845Z,10.30
2017-11-16T04:19:24.115Z,13.90
2017-11-16T04:21:52.493Z,10.50
2017-11-16T04:24:20.882Z,12.27
2017-11-16T04:26:49.257Z,12.17
2017-11-16T04:29:17.524Z,11.60
2017-11-16T04:31:45.913Z,11.50
2017-11-16T04:34:14.181Z,9.67
2017-11-16T04:36:42.463Z,10.47
2017-11-16T04:39:10.725Z,11.80
2017-11-16T04:41:39.012Z,13.77
2017-11-16T04:44:07.289Z,9.07
2017-11-16T04:46:35.673Z,11.10
2017-11-16T04:49:03.951Z,10.00
2017-11-16T04:51:32.237Z,11.13
2017-11-16T04:54:00.613Z,10.50
2017-11-16T04:56:28.985Z,8.97
2017-11-16T04:58:57.244Z,8.97
2017-11-16T05:01:25.542Z,10.63
2017-11-16T05:03:53.801Z,10.43
2017-11-16T05:06:22.199Z,9.93
2017-11-16T05:08:50.457Z,10.00
2017-11-16T05:11:18.745Z,8.57
2017-11-16T05:13:47.018Z,10.87
2017-11-16T05:16:15.322Z,11.80
2017-11-16T05:18:43.576Z,12.90
2017-11-16T05:21:11.858Z,10.80
2017-11-16T05:23:40.246Z,10.73
2017-11-16T05:26:08.625Z,10.30
2017-11-16T05:28:36.908Z,10.87
2017-11-16T05:31:05.176Z,10.97
2017-11-16T05:33:33.461Z,11.60
2017-11-16T05:36:03.263Z,11.20
2017-11-16T05:38:31.593Z,14.20
2017-11-16T05:41:00.621Z,13.90
2017-11-16T05:43:28.900Z,13.60
2017-11-16T05:45:57.173Z,12.57
2017-11-16T05:48:25.453Z,14.10
2017-11-16T05:50:53.728Z,12.30
2017-11-16T05:53:22.027Z,14.87
2017-11-16T05:55:50.320Z,12.23
2017-11-16T05:58:18.596Z,12.27
2017-11-16T06:00:46.874Z,11.30
2017-11-16T06:03:15.153Z,13.30
2017-11-16T06:05:43.423Z,10.50
2017-11-16T06:08:11.705Z,19.83
2017-11-16T06:10:40.080Z,18.90
2017-11-16T06:13:09.112Z,13.57
2017-11-16T06:15:37.440Z,13.60
2017-11-16T06:18:05.717Z,10.87
2017-11-16T06:20:34.097Z,13.47
2017-11-16T06:23:02.466Z,13.90
2017-11-16T06:25:30.856Z,12.03
2017-11-16T06:27:59.131Z,12.50
2017-11-16T06:30:27.386Z,11.63
2017-11-16T06:32:55.683Z,13.60
2017-11-16T06:35:23.943Z,11.37
2017-11-16T06:37:52.226Z,13.67
2017-11-16T06:40:20.493Z,12.20
2017-11-16T06:42:48.774Z,12.33
2017-11-16T06:45:17.041Z,11.60
2017-11-16T06:47:45.324Z,11.67
2017-11-16T06:50:13.590Z,11.47
2017-11-16T06:52:41.878Z,11.53
2017-11-16T06:55:10.175Z,11.90
2017-11-16T06:57:38.450Z,10.60
2017-11-16T07:00:06.721Z,11.87
2017-11-16T07:02:35.005Z,11.40
2017-11-16T07:05:03.266Z,11.03
2017-11-16T07:07:31.643Z,10.50
2017-11-16T07:10:00.705Z,11.00
2017-11-16T07:12:28.985Z,10.60
2017-11-16T07:14:57.266Z,12.37
2017-11-16T07:17:25.517Z,9.87
2017-11-16T07:19:53.885Z,10.53
2017-11-16T07:22:22.141Z,9.63
2017-11-16T07:24:50.425Z,9.30
2017-11-16T07:27:18.689Z,11.30
2017-11-16T07:29:46.968Z,9.60
2017-11-16T07:32:15.216Z,11.07
2017-11-16T07:34:44.378Z,10.90
2017-11-16T07:37:12.685Z,12.67
2017-11-16T07:39:41.730Z,11.60
2017-11-16T07:42:10.000Z,13.07
2017-11-16T07:44:38.372Z,12.40
2017-11-16T07:47:06.628Z,12.87
2017-11-16T07:49:34.921Z,13.87
2017-11-16T07:52:03.179Z,11.23
2017-11-16T07:54:32.235Z,12.70
2017-11-16T07:57:00.497Z,12.40
2017-11-16T07:59:28.788Z,15.30
2017-11-16T08:01:57.268Z,13.30
2017-11-16T08:04:25.545Z,13.70
2017-11-16T08:06:53.825Z,12.13
2017-11-16T08:09:22.118Z,13.73
2017-11-16T08:11:50.374Z,13.50
2017-11-16T08:14:18.750Z,13.47
2017-11-16T08:16:47.005Z,12.90
2017-11-16T08:19:15.284Z,11.87
2017-11-16T08:21:43.538Z,11.90
2017-11-16T08:24:11.829Z,13.40
2017-11-16T08:26:40.081Z,12.20
2017-11-16T08:29:09.231Z,10.90
2017-11-16T08:31:37.493Z,13.47
2017-11-16T08:34:05.778Z,12.30
2017-11-16T08:36:34.033Z,13.00
2017-11-16T08:39:02.318Z,13.20
2017-11-16T08:41:30.577Z,14.43
2017-11-16T08:43:58.861Z,13.80
2017-11-16T08:46:27.138Z,12.67
2017-11-16T08:48:55.413Z,11.50
2017-11-16T08:51:23.677Z,11.90
2017-11-16T08:53:51.955Z,14.00
2017-11-16T08:56:20.215Z,13.60
2017-11-16T08:58:49.259Z,15.30
2017-11-16T09:01:17.554Z,16.60
2017-11-16T09:03:45.830Z,17.00
2017-11-16T09:06:14.865Z,17.20
2017-11-16T09:08:43.911Z,17.60
2017-11-16T09:11:12.197Z,18.63
2017-11-16T09:13:40.465Z,16.37
2017-11-16T09:16:08.757Z,18.63
2017-11-16T09:18:38.524Z,17.63
2017-11-16T09:21:06.801Z,18.10
2017-11-16T09:23:35.154Z,17.53
2017-11-16T09:26:04.910Z,17.30
2017-11-16T09:28:33.178Z,17.03
2017-11-16T09:31:01.454Z,19.47
2017-11-16T09:33:29.718Z,17.97
2017-11-16T09:35:58.034Z,18.53
2017-11-16T09:38:26.321Z,16.50
2017-11-16T09:40:55.366Z,19.57
2017-11-16T09:43:23.635Z,16.90
2017-11-16T09:45:51.935Z,17.70
2017-11-16T09:48:20.253Z,16.87
2017-11-16T09:50:48.525Z,19.03
2017-11-16T09:53:16.796Z,15.33
2017-11-16T09:55:46.605Z,16.37
2017-11-16T09:58:14.882Z,13.40
2017-11-16T10:00:43.261Z,14.87
2017-11-16T10:03:11.523Z,18.07
2017-11-16T10:05:39.810Z,18.17
2017-11-16T10:08:08.081Z,14.67
2017-11-16T10:10:36.385Z,17.20
2017-11-16T10:13:04.652Z,16.53
2017-11-16T10:15:32.937Z,15.70
2017-11-16T10:18:01.511Z,15.63
2017-11-16T10:20:29.815Z,17.70
2017-11-16T10:22:58.870Z,17.27
2017-11-16T10:25:27.259Z,16.57
2017-11-16T10:27:55.538Z,15.70
2017-11-16T10:30:23.922Z,17.63
2017-11-16T10:32:53.708Z,16.27
2017-11-16T10:35:21.997Z,17.57
2017-11-16T10:37:50.265Z,16.23
2017-11-16T10:40:18.559Z,16.43
2017-11-16T10:42:46.828Z,16.67
2017-11-16T10:45:15.105Z,15.90
2017-11-16T10:47:43.393Z,18.90
2017-11-16T10:50:11.770Z,16.93
2017-11-16T10:52:40.037Z,16.33
2017-11-16T10:55:08.297Z,17.73
2017-11-16T10:57:36.604Z,19.63
2017-11-16T11:00:04.883Z,19.17
2017-11-16T11:02:33.186Z,20.00
2017-11-16T11:05:02.226Z,18.43
2017-11-16T11:07:30.532Z,21.70
2017-11-16T11:09:58.802Z,18.73
2017-11-16T11:12:27.197Z,18.27
2017-11-16T11:14:55.467Z,16.90
2017-11-16T11:17:23.837Z,20.20
2017-11-16T11:19:52.109Z,18.03
2017-11-16T11:22:20.507Z,18.60
2017-11-16T11:24:48.766Z,18.20
2017-11-16T11:27:17.149Z,20.10
2017-11-16T11:29:45.433Z,15.80
2017-11-16T11:32:13.714Z,19.10
2017-11-16T11:34:42.798Z,16.67
2017-11-16T11:37:11.907Z,17.40
2017-11-16T11:39:40.599Z,18.50
2017-11-16T11:42:09.663Z,17.10
2017-11-16T11:44:37.935Z,17.00
2017-11-16T11:47:06.310Z,14.30
2017-11-16T11:49:34.629Z,15.17
2017-11-16T11:52:02.998Z,15.47
2017-11-16T11:54:31.748Z,14.57
2017-11-16T11:57:00.781Z,15.47
2017-11-16T11:59:29.091Z,14.37
2017-11-16T12:01:58.141Z,14.63
2017-11-16T12:04:26.413Z,14.07
2017-11-16T12:06:54.808Z,16.57
2017-11-16T12:09:23.062Z,14.53
2017-11-16T12:11:51.341Z,12.83
2017-11-16T12:14:19.610Z,14.77
2017-11-16T12:16:47.911Z,11.97
2017-11-16T12:19:16.178Z,12.30
2017-11-16T12:21:44.482Z,12.37
2017-11-16T12:24:12.745Z,12.17
2017-11-16T12:26:41.019Z,12.07
2017-11-16T12:29:09.307Z,12.63
2017-11-16T12:31:37.569Z,12.43
2017-11-16T12:34:06.007Z,12.07
2017-11-16T12:36:34.281Z,11.83
2017-11-16T12:39:02.616Z,13.23
2017-11-16T12:41:30.891Z,12.67
2017-11-16T12:43:59.173Z,13.70
2017-11-16T12:46:27.440Z,13.63
2017-11-16T12:48:55.730Z,14.37
2017-11-16T12:51:23.999Z,12.33
2017-11-16T12:53:52.277Z,13.73
2017-11-16T12:56:20.658Z,12.77
2017-11-16T12:58:49.040Z,13.27
2017-11-16T13:01:17.314Z,13.87
2017-11-16T13:03:45.699Z,13.13
2017-11-16T13:06:13.987Z,14.50
2017-11-16T13:08:42.257Z,14.80
2017-11-16T13:11:10.627Z,14.40
2017-11-16T13:13:38.902Z,14.00
2017-11-16T13:16:07.170Z,12.57
2017-11-16T13:18:35.469Z,12.83
2017-11-16T13:21:03.841Z,14.03
2017-11-16T13:23:32.117Z,13.07
2017-11-16T13:26:00.395Z,12.87
2017-11-16T13:28:28.768Z,12.57
2017-11-16T13:30:57.250Z,13.43
2017-11-16T13:33:25.527Z,12.27
2017-11-16T13:35:53.789Z,13.20
2017-11-16T13:38:22.065Z,14.30
2017-11-16T13:40:50.335Z,13.27
2017-11-16T13:43:18.635Z,11.87
2017-11-16T13:45:47.022Z,13.07
2017-11-16T13:48:16.073Z,14.50
2017-11-16T13:50:44.367Z,13.97
2017-11-16T13:53:12.788Z,13.70
2017-11-16T13:55:41.098Z,14.00
2017-11-16T13:58:09.369Z,14.40
2017-11-16T14:00:38.415Z,14.63
2017-11-16T14:03:06.676Z,14.40
2017-11-16T14:05:35.195Z,14.00
2017-11-16T14:08:03.474Z,13.07
2017-11-16T14:10:31.787Z,13.83
2017-11-16T14:13:00.107Z,14.20
2017-11-16T14:15:28.488Z,13.57
2017-11-16T14:17:56.745Z,13.17
2017-11-16T14:20:25.028Z,13.70
2017-11-16T14:22:53.314Z,12.53
2017-11-16T14:25:21.623Z,12.37
2017-11-16T14:27:49.971Z,10.73
2017-11-16T14:30:18.259Z,13.20
2017-11-16T14:32:46.636Z,13.37
2017-11-16T14:35:15.014Z,12.40
2017-11-16T14:37:43.289Z,12.23
2017-11-16T14:40:11.575Z,11.57
2017-11-16T14:42:39.843Z,13.07
2017-11-16T14:45:08.131Z,10.70
2017-11-16T14:47:36.397Z,10.87
2017-11-16T14:50:04.782Z,10.70
2017-11-16T14:52:33.041Z,11.77
2017-11-16T14:55:01.321Z,11.30
2017-11-16T14:57:29.580Z,11.17
2017-11-16T14:59:57.857Z,12.80
2017-11-16T15:02:26.161Z,11.57
2017-11-16T15:04:54.437Z,11.67
2017-11-16T15:07:22.705Z,13.80
2017-11-16T15:09:50.987Z,13.57
2017-11-16T15:12:20.694Z,11.90
2017-11-16T15:14:49.080Z,12.10
2017-11-16T15:17:17.337Z,12.37
2017-11-16T15:19:45.637Z,12.07
2017-11-16T15:22:13.901Z,16.07
2017-11-16T15:24:42.294Z,10.20
2017-11-16T15:27:10.560Z,10.20
2017-11-16T15:29:38.948Z,9.17
2017-11-16T15:32:07.330Z,9.83
2017-11-16T15:34:35.797Z,10.33
2017-11-16T15:37:04.090Z,11.37
2017-11-16T15:39:32.373Z,12.60
2017-11-16T15:42:01.405Z,13.37
2017-11-16T15:44:29.741Z,11.97
2017-11-16T15:46:58.001Z,11.33
2017-11-16T15:49:26.287Z,11.83
2017-11-16T15:51:54.541Z,10.17
2017-11-16T15:54:22.817Z,13.07
2017-11-16T15:56:51.083Z,16.10
2017-11-16T15:59:19.366Z,16.00
2017-11-16T16:01:47.625Z,14.70
2017-11-16T16:04:15.910Z,14.27
2017-11-16T16:06:44.169Z,14.10
2017-11-16T16:09:13.225Z,14.40
2017-11-16T16:11:41.485Z,12.87
2017-11-16T16:14:09.771Z,14.10
2017-11-16T16:16:38.052Z,15.37
2017-11-16T16:19:06.350Z,12.83
2017-11-16T16:21:34.638Z,13.70
2017-11-16T16:24:03.699Z,13.40
2017-11-16T16:26:32.009Z,13.40
2017-11-16T16:29:01.039Z,13.83
2017-11-16T16:31:29.354Z,12.33
2017-11-16T16:33:57.610Z,12.87
2017-11-16T16:36:25.913Z,12.87
2017-11-16T16:38:54.183Z,11.90
2017-11-16T16:41:22.476Z,11.90
2017-11-16T16:43:50.742Z,10.97
2017-11-16T16:46:19.017Z,12.10
2017-11-16T16:48:48.098Z,10.80
2017-11-16T16:51:16.381Z,10.60
2017-11-16T16:53:44.651Z,8.87
2017-11-16T16:56:12.932Z,9.87
2017-11-16T16:58:41.314Z,10.33
2017-11-16T17:01:09.687Z,10.13
2017-11-16T17:03:37.954Z,10.37
2017-11-16T17:06:06.232Z,9.60
2017-11-16T17:08:34.512Z,10.57
2017-11-16T17:11:02.798Z,10.37
2017-11-16T17:13:31.062Z,10.23
2017-11-16T17:15:59.356Z,9.80
2017-11-16T17:18:27.641Z,9.80
2017-11-16T17:20:56.030Z,10.43
2017-11-16T17:23:24.314Z,10.13
2017-11-16T17:25:53.354Z,9.47
2017-11-16T17:28:21.618Z,10.33
2017-11-16T17:30:49.936Z,10.20
2017-11-16T17:33:18.184Z,10.70
2017-11-16T17:35:46.469Z,10.90
2017-11-16T17:38:14.769Z,14.03
2017-11-16T17:40:43.153Z,12.47
2017-11-16T17:43:11.420Z,10.83
2017-11-16T17:45:39.702Z,11.13
2017-11-16T17:48:07.969Z,10.97
2017-11-16T17:50:36.246Z,11.00
2017-11-16T17:53:04.502Z,10.17
2017-11-16T17:55:32.787Z,11.57
2017-11-16T17:58:01.290Z,11.70
2017-11-16T18:00:29.534Z,28.80
2017-11-16T18:02:57.822Z,13.77
2017-11-16T18:05:26.074Z,11.90
2017-11-16T18:07:55.073Z,13.20
2017-11-16T18:10:23.329Z,22.90
2017-11-16T18:12:52.369Z,12.53
2017-11-16T18:15:20.656Z,13.30
2017-11-16T18:17:48.936Z,11.60
2017-11-16T18:20:17.202Z,12.23
2017-11-16T18:22:45.488Z,11.80
2017-11-16T18:25:13.767Z,12.43
2017-11-16T18:27:42.051Z,12.53
2017-11-16T18:30:10.310Z,13.27
2017-11-16T18:32:38.703Z,13.67
2017-11-16T18:35:06.957Z,11.73
2017-11-16T18:37:35.396Z,15.13
2017-11-16T18:40:04.454Z,15.17
2017-11-16T18:42:32.843Z,14.43
2017-11-16T18:45:01.137Z,12.47
2017-11-16T18:47:29.463Z,13.00
2017-11-16T18:49:57.871Z,14.67
2017-11-16T18:52:26.242Z,14.00
2017-11-16T18:54:54.547Z,15.60
2017-11-16T18:57:22.862Z,14.50
2017-11-16T18:59:51.172Z,14.43
2017-11-16T19:02:19.457Z,12.73
2017-11-16T19:04:47.712Z,13.77
2017-11-16T19:07:16.757Z,12.67
2017-11-16T19:09:45.115Z,15.10
2017-11-16T19:12:13.378Z,16.00
2017-11-16T19:14:41.664Z,13.13
2017-11-16T19:17:10.045Z,14.10
2017-11-16T19:19:38.310Z,13.50
2017-11-16T19:22:06.557Z,13.20
2017-11-16T19:24:34.866Z,15.07
2017-11-16T19:27:03.125Z,14.10
2017-11-16T19:29:31.409Z,15.07
2017-11-16T19:31:59.666Z,14.97
2017-11-16T19:34:27.949Z,14.40
2017-11-16T19:36:56.260Z,13.57
2017-11-16T19:39:24.537Z,16.33
2017-11-16T19:41:52.817Z,15.13
2017-11-16T19:44:21.096Z,14.87
2017-11-16T19:46:49.356Z,14.63
2017-11-16T19:49:17.849Z,15.17
2017-11-16T19:51:46.097Z,12.50
2017-11-16T19:54:14.377Z,14.50
2017-11-16T19:56:42.636Z,15.60
2017-11-16T19:59:10.927Z,16.00
2017-11-16T20:01:39.233Z,15.23
2017-11-16T20:04:07.509Z,14.10
2017-11-16T20:06:35.783Z,18.30
2017-11-16T20:09:04.058Z,16.20
2017-11-16T20:11:32.317Z,14.33
2017-11-16T20:14:00.605Z,15.77
2017-11-16T20:16:28.869Z,14.70
2017-11-16T20:18:57.149Z,17.83
2017-11-16T20:21:25.410Z,19.03
2017-11-16T20:23:53.728Z,13.83
2017-11-16T20:26:21.974Z,14.33
2017-11-16T20:28:50.294Z,15.03
2017-11-16T20:31:18.656Z,15.40
2017-11-16T20:33:46.929Z,14.97
2017-11-16T20:36:15.216Z,14.13
2017-11-16T20:38:49.253Z,15.93
2017-11-16T20:41:17.539Z,16.40
2017-11-16T20:43:47.008Z,15.90
2017-11-16T20:46:15.809Z,14.63
2017-11-16T20:48:50.567Z,13.73
2017-11-16T20:54:17.591Z,13.47
2017-11-16T20:56:45.876Z,11.73
2017-11-16T20:59:14.153Z,13.80
2017-11-16T21:01:42.417Z,13.30
2017-11-16T21:04:10.707Z,13.27
2017-11-16T21:06:38.980Z,12.67
2017-11-16T21:09:07.257Z,12.83
2017-11-16T21:11:35.530Z,13.60
2017-11-16T21:14:03.806Z,12.00
2017-11-16T21:16:32.084Z,13.00
2017-11-16T21:19:00.381Z,12.67
2017-11-16T21:21:29.439Z,14.20
2017-11-16T21:23:57.731Z,14.00
2017-11-16T21:26:26.029Z,12.67
2017-11-16T21:28:54.313Z,12.57
2017-11-16T21:31:22.578Z,12.80
2017-11-16T21:33:50.879Z,14.00
2017-11-16T21:36:19.221Z,12.10
2017-11-16T21:38:47.599Z,12.60
2017-11-16T21:41:15.860Z,13.60
2017-11-16T21:43:44.144Z,13.27
2017-11-16T21:46:12.414Z,14.40
2017-11-16T21:48:40.715Z,12.60
2017-11-16T21:51:09.092Z,13.83
2017-11-16T21:53:37.366Z,12.70
2017-11-16T21:56:05.622Z,15.53
2017-11-16T21:58:33.921Z,12.73
2017-11-16T22:01:02.189Z,14.33
2017-11-16T22:03:30.473Z,13.47
2017-11-16T22:05:58.752Z,13.00
2017-11-16T22:08:27.045Z,12.80
2017-11-16T22:10:56.141Z,13.70
2017-11-16T22:13:25.949Z,12.90
2017-11-16T22:15:54.220Z,13.40
2017-11-16T22:18:22.589Z,12.90
2017-11-16T22:20:50.852Z,13.40
2017-11-16T22:23:19.129Z,13.20
2017-11-16T22:25:47.428Z,13.77
2017-11-16T22:28:15.690Z,12.57
2017-11-16T22:30:43.969Z,16.20
2017-11-16T22:33:12.228Z,14.33
2017-11-16T22:35:40.538Z,12.40
2017-11-16T22:38:08.795Z,14.53
2017-11-16T22:40:37.076Z,13.97
2017-11-16T22:43:05.471Z,13.13
2017-11-16T22:45:33.952Z,14.57
2017-11-16T22:48:02.224Z,14.90
2017-11-16T22:50:30.622Z,16.20
2017-11-16T22:52:59.091Z,13.10
2017-11-16T22:55:27.381Z,15.40
2017-11-16T22:57:56.428Z,16.20
2017-11-16T23:00:25.474Z,14.97
2017-11-16T23:02:53.756Z,12.83
2017-11-16T23:05:22.033Z,16.20
2017-11-16T23:07:50.298Z,15.30
2017-11-16T23:10:18.663Z,14.50
2017-11-16T23:12:46.942Z,16.30
2017-11-16T23:15:15.332Z,16.77
2017-11-16T23:17:43.598Z,14.90
2017-11-16T23:20:11.969Z,16.27
2017-11-16T23:22:40.229Z,13.37
2017-11-16T23:25:08.504Z,16.60
2017-11-16T23:27:36.807Z,16.93
2017-11-16T23:30:05.189Z,17.40
2017-11-16T23:32:33.450Z,14.50
2017-11-16T23:35:01.725Z,15.57
2017-11-16T23:37:29.984Z,15.80
2017-11-16T23:39:58.261Z,16.03
2017-11-16T23:42:26.521Z,15.60
2017-11-16T23:44:55.672Z,12.67
2017-11-16T23:47:23.925Z,15.30
2017-11-16T23:49:52.221Z,14.70
2017-11-16T23:52:20.476Z,14.33
2017-11-16T23:54:48.757Z,14.33
2017-11-16T23:57:17.013Z,15.40
2017-11-16T23:59:45.286Z,14.93
